sensor_id;sensor_type;location;lat;lon;timestamp;temperature;humidity
5086;DHT22;4715;51.660;7.082;2024-03-08T00:01:13;4.20;99.90
5086;DHT22;4715;51.660;7.082;2024-03-08T00:03:36;4.20;99.90
5086;DHT22;4715;51.660;7.082;2024-03-08T00:06:02;4.20;99.90
5086;DHT22;4715;51.660;7.082;2024-03-08T00:08:27;4.20;99.90
5086;DHT22;4715;51.660;7.082;2024-03-08T00:10:51;4.20;99.90
5086;DHT22;4715;51.660;7.082;2024-03-08T00:13:12;4.20;99.90
5086;DHT22;4715;51.660;7.082;2024-03-08T00:15:37;4.20;99.90
5086;DHT22;4715;51.660;7.082;2024-03-08T00:17:59;4.20;99.90
5086;DHT22;4715;51.660;7.082;2024-03-08T00:20:21;4.20;99.90
5086;DHT22;4715;51.660;7.082;2024-03-08T00:22:45;4.20;99.90
5086;DHT22;4715;51.660;7.082;2024-03-08T00:25:08;4.10;99.90
5086;DHT22;4715;51.660;7.082;2024-03-08T00:27:30;4.10;99.90
5086;DHT22;4715;51.660;7.082;2024-03-08T00:29:53;4.10;99.90
5086;DHT22;4715;51.660;7.082;2024-03-08T00:32:19;4.00;99.90
5086;DHT22;4715;51.660;7.082;2024-03-08T00:34:41;4.00;99.90
5086;DHT22;4715;51.660;7.082;2024-03-08T00:37:03;3.90;99.90
5086;DHT22;4715;51.660;7.082;2024-03-08T00:39:27;3.90;99.90
5086;DHT22;4715;51.660;7.082;2024-03-08T00:41:55;3.90;99.90
5086;DHT22;4715;51.660;7.082;2024-03-08T00:44:17;3.80;99.90
5086;DHT22;4715;51.660;7.082;2024-03-08T00:46:39;3.80;99.90
5086;DHT22;4715;51.660;7.082;2024-03-08T00:49:01;3.80;99.90
5086;DHT22;4715;51.660;7.082;2024-03-08T00:51:23;3.80;99.90
5086;DHT22;4715;51.660;7.082;2024-03-08T00:53:44;3.70;99.90
5086;DHT22;4715;51.660;7.082;2024-03-08T00:56:11;3.80;99.90
5086;DHT22;4715;51.660;7.082;2024-03-08T00:58:32;3.80;99.90
5086;DHT22;4715;51.660;7.082;2024-03-08T01:00:54;3.70;99.90
5086;DHT22;4715;51.660;7.082;2024-03-08T01:03:17;3.70;99.90
5086;DHT22;4715;51.660;7.082;2024-03-08T01:05:39;3.70;99.90
5086;DHT22;4715;51.660;7.082;2024-03-08T01:08:02;3.70;99.90
5086;DHT22;4715;51.660;7.082;2024-03-08T01:10:25;3.70;99.90
5086;DHT22;4715;51.660;7.082;2024-03-08T01:12:50;3.60;99.90
5086;DHT22;4715;51.660;7.082;2024-03-08T01:15:14;3.60;99.90
5086;DHT22;4715;51.660;7.082;2024-03-08T01:17:37;3.60;99.90
5086;DHT22;4715;51.660;7.082;2024-03-08T01:20:02;3.60;99.90
5086;DHT22;4715;51.660;7.082;2024-03-08T01:22:33;3.60;99.90
5086;DHT22;4715;51.660;7.082;2024-03-08T01:24:55;3.50;99.90
5086;DHT22;4715;51.660;7.082;2024-03-08T01:27:16;3.50;99.90
5086;DHT22;4715;51.660;7.082;2024-03-08T01:29:40;3.50;99.90
5086;DHT22;4715;51.660;7.082;2024-03-08T01:32:02;3.50;99.90
5086;DHT22;4715;51.660;7.082;2024-03-08T01:34:25;3.50;99.90
5086;DHT22;4715;51.660;7.082;2024-03-08T01:36:49;3.50;99.90
5086;DHT22;4715;51.660;7.082;2024-03-08T01:39:10;3.50;99.90
5086;DHT22;4715;51.660;7.082;2024-03-08T01:41:32;3.40;99.90
5086;DHT22;4715;51.660;7.082;2024-03-08T01:43:54;3.40;99.90
5086;DHT22;4715;51.660;7.082;2024-03-08T01:46:19;3.40;99.90
5086;DHT22;4715;51.660;7.082;2024-03-08T01:48:42;3.40;99.90
5086;DHT22;4715;51.660;7.082;2024-03-08T01:51:05;3.40;99.90
5086;DHT22;4715;51.660;7.082;2024-03-08T01:53:27;3.40;99.90
5086;DHT22;4715;51.660;7.082;2024-03-08T01:55:53;3.40;99.90
5086;DHT22;4715;51.660;7.082;2024-03-08T01:58:18;3.30;99.90
5086;DHT22;4715;51.660;7.082;2024-03-08T02:00:44;3.40;99.90
5086;DHT22;4715;51.660;7.082;2024-03-08T02:03:07;3.30;99.90
5086;DHT22;4715;51.660;7.082;2024-03-08T02:05:29;3.30;99.90
5086;DHT22;4715;51.660;7.082;2024-03-08T02:07:51;3.30;99.90
5086;DHT22;4715;51.660;7.082;2024-03-08T02:10:13;3.30;99.90
5086;DHT22;4715;51.660;7.082;2024-03-08T02:12:35;3.30;99.90
5086;DHT22;4715;51.660;7.082;2024-03-08T02:14:58;3.20;99.90
5086;DHT22;4715;51.660;7.082;2024-03-08T02:17:23;3.20;99.90
5086;DHT22;4715;51.660;7.082;2024-03-08T02:19:49;3.20;99.90
5086;DHT22;4715;51.660;7.082;2024-03-08T02:22:12;3.20;99.90
5086;DHT22;4715;51.660;7.082;2024-03-08T02:24:34;3.20;99.90
5086;DHT22;4715;51.660;7.082;2024-03-08T02:26:56;3.20;99.90
5086;DHT22;4715;51.660;7.082;2024-03-08T02:29:18;3.20;99.90
5086;DHT22;4715;51.660;7.082;2024-03-08T02:31:41;3.10;99.90
5086;DHT22;4715;51.660;7.082;2024-03-08T02:34:03;3.10;99.90
5086;DHT22;4715;51.660;7.082;2024-03-08T02:36:25;3.10;99.90
5086;DHT22;4715;51.660;7.082;2024-03-08T02:38:50;3.10;99.90
5086;DHT22;4715;51.660;7.082;2024-03-08T02:41:12;3.10;99.90
5086;DHT22;4715;51.660;7.082;2024-03-08T02:43:33;3.00;99.90
5086;DHT22;4715;51.660;7.082;2024-03-08T02:45:55;3.00;99.90
5086;DHT22;4715;51.660;7.082;2024-03-08T02:48:20;3.00;99.90
5086;DHT22;4715;51.660;7.082;2024-03-08T02:50:42;3.00;99.90
5086;DHT22;4715;51.660;7.082;2024-03-08T02:53:05;3.00;99.90
5086;DHT22;4715;51.660;7.082;2024-03-08T02:55:28;3.00;99.90
5086;DHT22;4715;51.660;7.082;2024-03-08T02:57:50;2.90;99.90
5086;DHT22;4715;51.660;7.082;2024-03-08T03:00:12;2.90;99.90
5086;DHT22;4715;51.660;7.082;2024-03-08T03:02:34;2.90;99.90
5086;DHT22;4715;51.660;7.082;2024-03-08T03:04:56;2.90;99.90
5086;DHT22;4715;51.660;7.082;2024-03-08T03:07:19;2.90;99.90
5086;DHT22;4715;51.660;7.082;2024-03-08T03:09:41;2.90;99.90
5086;DHT22;4715;51.660;7.082;2024-03-08T03:12:04;2.90;99.90
5086;DHT22;4715;51.660;7.082;2024-03-08T03:14:29;2.90;99.90
5086;DHT22;4715;51.660;7.082;2024-03-08T03:16:51;2.90;99.90
5086;DHT22;4715;51.660;7.082;2024-03-08T03:19:13;2.90;99.90
5086;DHT22;4715;51.660;7.082;2024-03-08T03:21:36;2.90;99.90
5086;DHT22;4715;51.660;7.082;2024-03-08T03:23:59;2.90;99.90
5086;DHT22;4715;51.660;7.082;2024-03-08T03:26:21;2.90;99.90
5086;DHT22;4715;51.660;7.082;2024-03-08T03:28:44;2.90;99.90
5086;DHT22;4715;51.660;7.082;2024-03-08T03:31:06;2.90;99.90
5086;DHT22;4715;51.660;7.082;2024-03-08T03:33:30;2.90;99.90
5086;DHT22;4715;51.660;7.082;2024-03-08T03:35:54;2.90;99.90
5086;DHT22;4715;51.660;7.082;2024-03-08T03:38:16;2.90;99.90
5086;DHT22;4715;51.660;7.082;2024-03-08T03:40:39;2.90;99.90
5086;DHT22;4715;51.660;7.082;2024-03-08T03:43:05;2.90;99.90
5086;DHT22;4715;51.660;7.082;2024-03-08T03:45:29;2.80;99.90
5086;DHT22;4715;51.660;7.082;2024-03-08T03:47:54;2.80;99.90
5086;DHT22;4715;51.660;7.082;2024-03-08T03:50:16;2.80;99.90
5086;DHT22;4715;51.660;7.082;2024-03-08T03:52:39;2.80;99.90
5086;DHT22;4715;51.660;7.082;2024-03-08T03:55:03;2.80;99.90
5086;DHT22;4715;51.660;7.082;2024-03-08T03:57:25;2.70;99.90
5086;DHT22;4715;51.660;7.082;2024-03-08T03:59:47;2.70;99.90
5086;DHT22;4715;51.660;7.082;2024-03-08T04:02:10;2.70;99.90
5086;DHT22;4715;51.660;7.082;2024-03-08T04:04:32;2.70;99.90
5086;DHT22;4715;51.660;7.082;2024-03-08T04:06:54;2.70;99.90
5086;DHT22;4715;51.660;7.082;2024-03-08T04:09:15;2.70;99.90
5086;DHT22;4715;51.660;7.082;2024-03-08T04:11:39;2.70;99.90
5086;DHT22;4715;51.660;7.082;2024-03-08T04:14:01;2.70;99.90
5086;DHT22;4715;51.660;7.082;2024-03-08T04:16:23;2.70;99.90
5086;DHT22;4715;51.660;7.082;2024-03-08T04:18:48;2.60;99.90
5086;DHT22;4715;51.660;7.082;2024-03-08T04:21:09;2.60;99.90
5086;DHT22;4715;51.660;7.082;2024-03-08T04:23:31;2.70;99.90
5086;DHT22;4715;51.660;7.082;2024-03-08T04:25:54;2.70;99.90
5086;DHT22;4715;51.660;7.082;2024-03-08T04:28:16;2.70;99.90
5086;DHT22;4715;51.660;7.082;2024-03-08T04:30:38;2.60;99.90
5086;DHT22;4715;51.660;7.082;2024-03-08T04:33:02;2.60;99.90
5086;DHT22;4715;51.660;7.082;2024-03-08T04:35:25;2.60;99.90
5086;DHT22;4715;51.660;7.082;2024-03-08T04:37:47;2.60;99.90
5086;DHT22;4715;51.660;7.082;2024-03-08T04:40:10;2.60;99.90
5086;DHT22;4715;51.660;7.082;2024-03-08T04:42:32;2.60;99.90
5086;DHT22;4715;51.660;7.082;2024-03-08T04:44:55;2.60;99.90
5086;DHT22;4715;51.660;7.082;2024-03-08T04:47:17;2.60;99.90
5086;DHT22;4715;51.660;7.082;2024-03-08T04:49:39;2.60;99.90
5086;DHT22;4715;51.660;7.082;2024-03-08T04:52:04;2.60;99.90
5086;DHT22;4715;51.660;7.082;2024-03-08T04:54:27;2.60;99.90
5086;DHT22;4715;51.660;7.082;2024-03-08T04:56:49;2.60;99.90
5086;DHT22;4715;51.660;7.082;2024-03-08T04:59:11;2.60;99.90
5086;DHT22;4715;51.660;7.082;2024-03-08T05:01:34;2.60;99.90
5086;DHT22;4715;51.660;7.082;2024-03-08T05:03:57;2.60;99.90
5086;DHT22;4715;51.660;7.082;2024-03-08T05:06:19;2.60;99.90
5086;DHT22;4715;51.660;7.082;2024-03-08T05:08:45;2.50;99.90
5086;DHT22;4715;51.660;7.082;2024-03-08T05:11:07;2.50;99.90
5086;DHT22;4715;51.660;7.082;2024-03-08T05:13:30;2.40;99.90
5086;DHT22;4715;51.660;7.082;2024-03-08T05:15:52;2.40;99.90
5086;DHT22;4715;51.660;7.082;2024-03-08T05:18:14;2.40;99.90
5086;DHT22;4715;51.660;7.082;2024-03-08T05:20:36;2.40;99.90
5086;DHT22;4715;51.660;7.082;2024-03-08T05:22:58;2.40;99.90
5086;DHT22;4715;51.660;7.082;2024-03-08T05:25:22;2.40;99.90
5086;DHT22;4715;51.660;7.082;2024-03-08T05:27:44;2.40;99.90
5086;DHT22;4715;51.660;7.082;2024-03-08T05:30:08;2.40;99.90
5086;DHT22;4715;51.660;7.082;2024-03-08T05:32:34;2.40;99.90
5086;DHT22;4715;51.660;7.082;2024-03-08T05:34:59;2.40;99.90
5086;DHT22;4715;51.660;7.082;2024-03-08T05:37:20;2.40;99.90
5086;DHT22;4715;51.660;7.082;2024-03-08T05:39:42;2.30;99.90
5086;DHT22;4715;51.660;7.082;2024-03-08T05:42:06;2.30;99.90
5086;DHT22;4715;51.660;7.082;2024-03-08T05:44:29;2.30;99.90
5086;DHT22;4715;51.660;7.082;2024-03-08T05:46:51;2.30;99.90
5086;DHT22;4715;51.660;7.082;2024-03-08T05:49:13;2.30;99.90
5086;DHT22;4715;51.660;7.082;2024-03-08T05:51:36;2.30;99.90
5086;DHT22;4715;51.660;7.082;2024-03-08T05:53:59;2.30;99.90
5086;DHT22;4715;51.660;7.082;2024-03-08T05:56:23;2.30;99.90
5086;DHT22;4715;51.660;7.082;2024-03-08T05:58:46;2.30;99.90
5086;DHT22;4715;51.660;7.082;2024-03-08T06:01:09;2.30;99.90
5086;DHT22;4715;51.660;7.082;2024-03-08T06:03:33;2.30;99.90
5086;DHT22;4715;51.660;7.082;2024-03-08T06:05:55;2.30;99.90
5086;DHT22;4715;51.660;7.082;2024-03-08T06:08:17;2.30;99.90
5086;DHT22;4715;51.660;7.082;2024-03-08T06:10:39;2.30;99.90
5086;DHT22;4715;51.660;7.082;2024-03-08T06:13:01;2.30;99.90
5086;DHT22;4715;51.660;7.082;2024-03-08T06:15:24;2.30;99.90
5086;DHT22;4715;51.660;7.082;2024-03-08T06:17:46;2.30;99.90
5086;DHT22;4715;51.660;7.082;2024-03-08T06:20:09;2.30;99.90
5086;DHT22;4715;51.660;7.082;2024-03-08T06:22:33;2.30;99.90
5086;DHT22;4715;51.660;7.082;2024-03-08T06:24:55;2.30;99.90
5086;DHT22;4715;51.660;7.082;2024-03-08T06:27:17;2.30;99.90
5086;DHT22;4715;51.660;7.082;2024-03-08T06:29:40;2.30;99.90
5086;DHT22;4715;51.660;7.082;2024-03-08T06:32:03;2.20;99.90
5086;DHT22;4715;51.660;7.082;2024-03-08T06:34:25;2.20;99.90
5086;DHT22;4715;51.660;7.082;2024-03-08T06:36:47;2.20;99.90
5086;DHT22;4715;51.660;7.082;2024-03-08T06:39:09;2.30;99.90
5086;DHT22;4715;51.660;7.082;2024-03-08T06:41:31;2.30;99.90
5086;DHT22;4715;51.660;7.082;2024-03-08T06:43:53;2.40;99.90
5086;DHT22;4715;51.660;7.082;2024-03-08T06:46:18;2.40;99.90
5086;DHT22;4715;51.660;7.082;2024-03-08T06:48:42;2.40;99.90
5086;DHT22;4715;51.660;7.082;2024-03-08T06:51:04;2.40;99.90
5086;DHT22;4715;51.660;7.082;2024-03-08T06:53:26;2.50;99.90
5086;DHT22;4715;51.660;7.082;2024-03-08T06:55:48;2.50;99.90
5086;DHT22;4715;51.660;7.082;2024-03-08T06:58:11;2.50;99.90
5086;DHT22;4715;51.660;7.082;2024-03-08T07:00:32;2.60;99.90
5086;DHT22;4715;51.660;7.082;2024-03-08T07:02:54;2.70;99.90
5086;DHT22;4715;51.660;7.082;2024-03-08T07:05:19;2.70;99.90
5086;DHT22;4715;51.660;7.082;2024-03-08T07:07:41;2.80;99.90
5086;DHT22;4715;51.660;7.082;2024-03-08T07:10:04;2.90;99.90
5086;DHT22;4715;51.660;7.082;2024-03-08T07:12:26;3.00;99.90
5086;DHT22;4715;51.660;7.082;2024-03-08T07:14:48;3.00;99.90
5086;DHT22;4715;51.660;7.082;2024-03-08T07:17:10;3.10;99.90
5086;DHT22;4715;51.660;7.082;2024-03-08T07:19:32;3.10;99.90
5086;DHT22;4715;51.660;7.082;2024-03-08T07:21:55;3.20;99.90
5086;DHT22;4715;51.660;7.082;2024-03-08T07:24:17;3.20;99.90
5086;DHT22;4715;51.660;7.082;2024-03-08T07:27:00;3.30;99.90
5086;DHT22;4715;51.660;7.082;2024-03-08T07:29:21;3.30;99.90
5086;DHT22;4715;51.660;7.082;2024-03-08T07:31:43;3.40;99.90
5086;DHT22;4715;51.660;7.082;2024-03-08T07:34:11;3.50;99.90
5086;DHT22;4715;51.660;7.082;2024-03-08T07:36:33;3.60;99.90
5086;DHT22;4715;51.660;7.082;2024-03-08T07:38:57;3.70;99.90
5086;DHT22;4715;51.660;7.082;2024-03-08T07:41:19;3.80;99.90
5086;DHT22;4715;51.660;7.082;2024-03-08T07:43:42;3.90;99.90
5086;DHT22;4715;51.660;7.082;2024-03-08T07:46:04;4.10;99.90
5086;DHT22;4715;51.660;7.082;2024-03-08T07:48:28;4.20;99.90
5086;DHT22;4715;51.660;7.082;2024-03-08T07:50:53;4.30;99.90
5086;DHT22;4715;51.660;7.082;2024-03-08T07:53:18;4.30;99.90
5086;DHT22;4715;51.660;7.082;2024-03-08T07:55:41;4.40;99.90
5086;DHT22;4715;51.660;7.082;2024-03-08T07:58:05;4.40;99.90
5086;DHT22;4715;51.660;7.082;2024-03-08T08:00:28;4.50;99.90
5086;DHT22;4715;51.660;7.082;2024-03-08T08:02:51;4.50;99.90
5086;DHT22;4715;51.660;7.082;2024-03-08T08:05:13;4.60;99.90
5086;DHT22;4715;51.660;7.082;2024-03-08T08:07:35;4.70;99.90
5086;DHT22;4715;51.660;7.082;2024-03-08T08:09:56;4.70;99.90
5086;DHT22;4715;51.660;7.082;2024-03-08T08:12:19;4.80;99.90
5086;DHT22;4715;51.660;7.082;2024-03-08T08:14:41;4.90;99.90
5086;DHT22;4715;51.660;7.082;2024-03-08T08:17:03;4.90;99.90
5086;DHT22;4715;51.660;7.082;2024-03-08T08:19:25;4.90;99.90
5086;DHT22;4715;51.660;7.082;2024-03-08T08:21:48;5.00;99.90
5086;DHT22;4715;51.660;7.082;2024-03-08T08:24:10;5.00;99.90
5086;DHT22;4715;51.660;7.082;2024-03-08T08:26:32;5.10;99.90
5086;DHT22;4715;51.660;7.082;2024-03-08T08:28:57;5.20;99.90
5086;DHT22;4715;51.660;7.082;2024-03-08T08:31:20;5.20;99.90
5086;DHT22;4715;51.660;7.082;2024-03-08T08:33:42;5.30;99.90
5086;DHT22;4715;51.660;7.082;2024-03-08T08:36:05;5.30;99.90
5086;DHT22;4715;51.660;7.082;2024-03-08T08:38:31;5.40;99.90
5086;DHT22;4715;51.660;7.082;2024-03-08T08:40:53;5.40;99.90
5086;DHT22;4715;51.660;7.082;2024-03-08T08:43:16;5.50;99.90
5086;DHT22;4715;51.660;7.082;2024-03-08T08:45:44;5.70;99.90
5086;DHT22;4715;51.660;7.082;2024-03-08T08:48:07;5.70;99.90
5086;DHT22;4715;51.660;7.082;2024-03-08T08:50:30;5.90;99.90
5086;DHT22;4715;51.660;7.082;2024-03-08T08:52:56;5.90;99.90
5086;DHT22;4715;51.660;7.082;2024-03-08T08:55:21;6.00;99.90
5086;DHT22;4715;51.660;7.082;2024-03-08T08:57:46;6.00;99.90
5086;DHT22;4715;51.660;7.082;2024-03-08T09:00:09;6.10;99.90
5086;DHT22;4715;51.660;7.082;2024-03-08T09:02:36;6.10;99.90
5086;DHT22;4715;51.660;7.082;2024-03-08T09:04:59;6.10;99.90
5086;DHT22;4715;51.660;7.082;2024-03-08T09:07:22;6.20;99.90
5086;DHT22;4715;51.660;7.082;2024-03-08T09:09:46;6.30;99.90
5086;DHT22;4715;51.660;7.082;2024-03-08T09:12:08;6.40;99.90
5086;DHT22;4715;51.660;7.082;2024-03-08T09:14:32;6.40;99.90
5086;DHT22;4715;51.660;7.082;2024-03-08T09:16:54;6.50;99.90
5086;DHT22;4715;51.660;7.082;2024-03-08T09:19:17;6.60;99.90
5086;DHT22;4715;51.660;7.082;2024-03-08T09:21:39;6.70;99.90
5086;DHT22;4715;51.660;7.082;2024-03-08T09:24:07;6.80;99.90
5086;DHT22;4715;51.660;7.082;2024-03-08T09:26:29;6.80;99.90
5086;DHT22;4715;51.660;7.082;2024-03-08T09:28:53;6.90;99.90
5086;DHT22;4715;51.660;7.082;2024-03-08T09:31:16;6.90;99.90
5086;DHT22;4715;51.660;7.082;2024-03-08T09:33:38;7.00;99.90
5086;DHT22;4715;51.660;7.082;2024-03-08T09:36:13;7.10;99.90
5086;DHT22;4715;51.660;7.082;2024-03-08T09:38:35;7.20;99.90
5086;DHT22;4715;51.660;7.082;2024-03-08T09:40:57;7.30;99.90
5086;DHT22;4715;51.660;7.082;2024-03-08T09:43:19;7.40;99.90
5086;DHT22;4715;51.660;7.082;2024-03-08T09:45:44;7.50;99.90
5086;DHT22;4715;51.660;7.082;2024-03-08T09:48:09;7.60;99.90
5086;DHT22;4715;51.660;7.082;2024-03-08T09:50:32;7.80;99.90
5086;DHT22;4715;51.660;7.082;2024-03-08T09:52:58;7.90;99.90
5086;DHT22;4715;51.660;7.082;2024-03-08T09:55:21;8.10;99.90
5086;DHT22;4715;51.660;7.082;2024-03-08T09:57:44;8.30;99.90
5086;DHT22;4715;51.660;7.082;2024-03-08T10:00:27;8.40;99.90
5086;DHT22;4715;51.660;7.082;2024-03-08T10:02:51;8.50;99.90
5086;DHT22;4715;51.660;7.082;2024-03-08T10:05:14;8.60;99.90
5086;DHT22;4715;51.660;7.082;2024-03-08T10:07:39;8.70;99.90
5086;DHT22;4715;51.660;7.082;2024-03-08T10:10:02;8.80;99.90
5086;DHT22;4715;51.660;7.082;2024-03-08T10:12:28;9.00;99.90
5086;DHT22;4715;51.660;7.082;2024-03-08T10:14:55;9.00;99.90
5086;DHT22;4715;51.660;7.082;2024-03-08T10:17:17;9.20;99.90
5086;DHT22;4715;51.660;7.082;2024-03-08T10:19:49;9.30;99.90
5086;DHT22;4715;51.660;7.082;2024-03-08T10:22:15;9.40;99.90
5086;DHT22;4715;51.660;7.082;2024-03-08T10:24:37;9.40;99.90
5086;DHT22;4715;51.660;7.082;2024-03-08T10:27:03;9.50;99.90
5086;DHT22;4715;51.660;7.082;2024-03-08T10:29:26;9.50;99.90
5086;DHT22;4715;51.660;7.082;2024-03-08T10:31:49;9.60;99.90
5086;DHT22;4715;51.660;7.082;2024-03-08T10:34:12;9.60;99.90
5086;DHT22;4715;51.660;7.082;2024-03-08T10:36:36;9.70;99.90
5086;DHT22;4715;51.660;7.082;2024-03-08T10:39:04;9.80;99.90
5086;DHT22;4715;51.660;7.082;2024-03-08T10:41:33;9.80;99.90
5086;DHT22;4715;51.660;7.082;2024-03-08T10:44:12;10.00;99.90
5086;DHT22;4715;51.660;7.082;2024-03-08T10:46:50;10.10;99.90
5086;DHT22;4715;51.660;7.082;2024-03-08T10:49:25;10.20;99.90
5086;DHT22;4715;51.660;7.082;2024-03-08T10:51:56;10.30;99.90
5086;DHT22;4715;51.660;7.082;2024-03-08T10:54:22;10.30;99.90
5086;DHT22;4715;51.660;7.082;2024-03-08T10:56:48;10.40;99.90
5086;DHT22;4715;51.660;7.082;2024-03-08T10:59:13;10.40;99.90
5086;DHT22;4715;51.660;7.082;2024-03-08T11:01:37;10.50;99.90
5086;DHT22;4715;51.660;7.082;2024-03-08T11:04:04;10.60;99.90
5086;DHT22;4715;51.660;7.082;2024-03-08T11:06:41;10.70;99.90
5086;DHT22;4715;51.660;7.082;2024-03-08T11:09:04;10.70;99.90
5086;DHT22;4715;51.660;7.082;2024-03-08T11:11:34;10.80;99.90
5086;DHT22;4715;51.660;7.082;2024-03-08T11:13:58;10.80;99.90
5086;DHT22;4715;51.660;7.082;2024-03-08T11:16:39;10.80;99.90
5086;DHT22;4715;51.660;7.082;2024-03-08T11:21:44;10.70;99.90
5086;DHT22;4715;51.660;7.082;2024-03-08T11:24:08;10.70;99.90
5086;DHT22;4715;51.660;7.082;2024-03-08T11:26:33;10.70;99.90
5086;DHT22;4715;51.660;7.082;2024-03-08T11:32:06;10.90;99.90
5086;DHT22;4715;51.660;7.082;2024-03-08T11:34:29;10.90;99.90
5086;DHT22;4715;51.660;7.082;2024-03-08T11:36:54;11.00;99.90
5086;DHT22;4715;51.660;7.082;2024-03-08T11:39:16;11.10;99.90
5086;DHT22;4715;51.660;7.082;2024-03-08T11:41:39;11.10;99.90
5086;DHT22;4715;51.660;7.082;2024-03-08T11:44:03;11.20;99.90
5086;DHT22;4715;51.660;7.082;2024-03-08T11:46:31;11.40;99.90
5086;DHT22;4715;51.660;7.082;2024-03-08T11:48:55;11.40;99.90
5086;DHT22;4715;51.660;7.082;2024-03-08T11:51:18;11.40;99.90
5086;DHT22;4715;51.660;7.082;2024-03-08T11:53:41;11.30;99.90
5086;DHT22;4715;51.660;7.082;2024-03-08T11:56:07;11.40;99.90
5086;DHT22;4715;51.660;7.082;2024-03-08T11:58:29;11.50;99.90
5086;DHT22;4715;51.660;7.082;2024-03-08T12:00:51;11.50;99.90
5086;DHT22;4715;51.660;7.082;2024-03-08T12:03:13;11.60;99.90
5086;DHT22;4715;51.660;7.082;2024-03-08T12:05:37;11.70;99.90
5086;DHT22;4715;51.660;7.082;2024-03-08T12:07:59;11.80;99.90
5086;DHT22;4715;51.660;7.082;2024-03-08T12:10:22;11.80;99.90
5086;DHT22;4715;51.660;7.082;2024-03-08T12:12:49;11.90;99.90
5086;DHT22;4715;51.660;7.082;2024-03-08T12:15:12;11.90;99.90
5086;DHT22;4715;51.660;7.082;2024-03-08T12:17:34;11.90;99.90
5086;DHT22;4715;51.660;7.082;2024-03-08T12:19:56;11.90;99.90
5086;DHT22;4715;51.660;7.082;2024-03-08T12:22:24;11.90;99.90
5086;DHT22;4715;51.660;7.082;2024-03-08T12:25:03;12.10;99.90
5086;DHT22;4715;51.660;7.082;2024-03-08T12:27:26;12.20;99.90
5086;DHT22;4715;51.660;7.082;2024-03-08T12:29:49;12.20;99.90
5086;DHT22;4715;51.660;7.082;2024-03-08T12:32:13;12.30;99.90
5086;DHT22;4715;51.660;7.082;2024-03-08T12:34:36;12.40;99.90
5086;DHT22;4715;51.660;7.082;2024-03-08T12:36:58;12.50;99.90
5086;DHT22;4715;51.660;7.082;2024-03-08T12:39:24;12.50;99.90
5086;DHT22;4715;51.660;7.082;2024-03-08T12:41:47;12.50;99.90
5086;DHT22;4715;51.660;7.082;2024-03-08T12:44:12;12.50;99.90
5086;DHT22;4715;51.660;7.082;2024-03-08T12:46:33;12.60;99.90
5086;DHT22;4715;51.660;7.082;2024-03-08T12:48:55;12.60;99.90
5086;DHT22;4715;51.660;7.082;2024-03-08T12:51:18;12.60;99.90
5086;DHT22;4715;51.660;7.082;2024-03-08T12:56:29;12.50;99.90
5086;DHT22;4715;51.660;7.082;2024-03-08T12:58:51;12.50;99.90
5086;DHT22;4715;51.660;7.082;2024-03-08T13:01:13;12.50;99.90
5086;DHT22;4715;51.660;7.082;2024-03-08T13:03:36;12.50;99.90
5086;DHT22;4715;51.660;7.082;2024-03-08T13:05:58;12.60;99.90
5086;DHT22;4715;51.660;7.082;2024-03-08T13:08:20;12.70;99.90
5086;DHT22;4715;51.660;7.082;2024-03-08T13:10:45;12.80;99.90
5086;DHT22;4715;51.660;7.082;2024-03-08T13:13:08;13.00;99.90
5086;DHT22;4715;51.660;7.082;2024-03-08T13:15:31;13.00;99.90
5086;DHT22;4715;51.660;7.082;2024-03-08T13:17:54;13.00;99.90
5086;DHT22;4715;51.660;7.082;2024-03-08T13:20:17;13.10;99.90
5086;DHT22;4715;51.660;7.082;2024-03-08T13:22:40;13.20;99.90
5086;DHT22;4715;51.660;7.082;2024-03-08T13:25:08;13.30;99.90
5086;DHT22;4715;51.660;7.082;2024-03-08T13:27:33;13.50;99.90
5086;DHT22;4715;51.660;7.082;2024-03-08T13:29:58;13.60;99.90
5086;DHT22;4715;51.660;7.082;2024-03-08T13:32:21;13.70;99.90
5086;DHT22;4715;51.660;7.082;2024-03-08T13:34:44;13.80;99.90
5086;DHT22;4715;51.660;7.082;2024-03-08T13:37:08;13.90;99.90
5086;DHT22;4715;51.660;7.082;2024-03-08T13:39:30;13.90;99.90
5086;DHT22;4715;51.660;7.082;2024-03-08T13:42:00;14.00;99.90
5086;DHT22;4715;51.660;7.082;2024-03-08T13:44:22;14.00;99.90
5086;DHT22;4715;51.660;7.082;2024-03-08T13:46:48;14.10;99.90
5086;DHT22;4715;51.660;7.082;2024-03-08T13:49:11;14.20;99.90
5086;DHT22;4715;51.660;7.082;2024-03-08T13:51:34;14.40;99.90
5086;DHT22;4715;51.660;7.082;2024-03-08T13:53:56;14.50;99.90
5086;DHT22;4715;51.660;7.082;2024-03-08T13:56:18;14.70;99.90
5086;DHT22;4715;51.660;7.082;2024-03-08T13:58:42;14.80;99.90
5086;DHT22;4715;51.660;7.082;2024-03-08T14:01:04;14.90;99.90
5086;DHT22;4715;51.660;7.082;2024-03-08T14:03:33;14.80;99.90
5086;DHT22;4715;51.660;7.082;2024-03-08T14:05:55;14.70;99.90
5086;DHT22;4715;51.660;7.082;2024-03-08T14:08:17;14.60;99.90
5086;DHT22;4715;51.660;7.082;2024-03-08T14:10:39;14.60;99.90
5086;DHT22;4715;51.660;7.082;2024-03-08T14:13:03;14.70;99.90
5086;DHT22;4715;51.660;7.082;2024-03-08T14:15:25;15.00;99.90
5086;DHT22;4715;51.660;7.082;2024-03-08T14:17:52;15.20;99.90
5086;DHT22;4715;51.660;7.082;2024-03-08T14:20:15;15.50;99.90
5086;DHT22;4715;51.660;7.082;2024-03-08T14:22:38;15.80;99.90
5086;DHT22;4715;51.660;7.082;2024-03-08T14:25:00;16.10;99.90
5086;DHT22;4715;51.660;7.082;2024-03-08T14:27:24;16.30;99.90
5086;DHT22;4715;51.660;7.082;2024-03-08T14:29:47;16.20;99.90
5086;DHT22;4715;51.660;7.082;2024-03-08T14:32:09;16.30;99.90
5086;DHT22;4715;51.660;7.082;2024-03-08T14:34:33;16.40;99.90
5086;DHT22;4715;51.660;7.082;2024-03-08T14:36:56;16.30;99.90
5086;DHT22;4715;51.660;7.082;2024-03-08T14:39:19;16.30;99.90
5086;DHT22;4715;51.660;7.082;2024-03-08T14:41:42;16.40;99.90
5086;DHT22;4715;51.660;7.082;2024-03-08T14:44:04;16.80;99.90
5086;DHT22;4715;51.660;7.082;2024-03-08T14:46:26;17.20;99.90
5086;DHT22;4715;51.660;7.082;2024-03-08T14:48:48;17.70;99.90
5086;DHT22;4715;51.660;7.082;2024-03-08T14:51:12;18.10;99.90
5086;DHT22;4715;51.660;7.082;2024-03-08T14:53:36;18.20;99.90
5086;DHT22;4715;51.660;7.082;2024-03-08T14:56:03;18.30;99.90
5086;DHT22;4715;51.660;7.082;2024-03-08T14:58:25;18.50;99.90
5086;DHT22;4715;51.660;7.082;2024-03-08T15:00:48;18.50;99.90
5086;DHT22;4715;51.660;7.082;2024-03-08T15:03:15;18.50;99.90
5086;DHT22;4715;51.660;7.082;2024-03-08T15:05:40;18.60;99.90
5086;DHT22;4715;51.660;7.082;2024-03-08T15:08:08;18.60;99.90
5086;DHT22;4715;51.660;7.082;2024-03-08T15:10:41;18.70;99.90
5086;DHT22;4715;51.660;7.082;2024-03-08T15:13:03;19.10;99.90
5086;DHT22;4715;51.660;7.082;2024-03-08T15:15:34;19.40;99.90
5086;DHT22;4715;51.660;7.082;2024-03-08T15:17:56;19.30;99.90
5086;DHT22;4715;51.660;7.082;2024-03-08T15:20:19;19.10;99.90
5086;DHT22;4715;51.660;7.082;2024-03-08T15:22:47;19.10;99.90
5086;DHT22;4715;51.660;7.082;2024-03-08T15:25:09;19.00;99.90
5086;DHT22;4715;51.660;7.082;2024-03-08T15:27:39;18.70;99.10
5086;DHT22;4715;51.660;7.082;2024-03-08T15:30:02;18.50;99.40
5086;DHT22;4715;51.660;7.082;2024-03-08T15:32:24;18.30;99.40
5086;DHT22;4715;51.660;7.082;2024-03-08T15:34:48;18.20;98.90
5086;DHT22;4715;51.660;7.082;2024-03-08T15:37:11;18.00;98.80
5086;DHT22;4715;51.660;7.082;2024-03-08T15:39:37;17.80;98.50
5086;DHT22;4715;51.660;7.082;2024-03-08T15:41:59;17.60;98.50
5086;DHT22;4715;51.660;7.082;2024-03-08T15:44:25;17.40;98.20
5086;DHT22;4715;51.660;7.082;2024-03-08T15:46:48;17.20;98.40
5086;DHT22;4715;51.660;7.082;2024-03-08T15:49:10;17.10;98.80
5086;DHT22;4715;51.660;7.082;2024-03-08T15:51:34;17.30;98.80
5086;DHT22;4715;51.660;7.082;2024-03-08T15:53:57;17.30;98.60
5086;DHT22;4715;51.660;7.082;2024-03-08T15:56:20;17.20;98.40